Temp: 1.9°C   Baro: 1027.1mb
  Wind: 0.0mph   Dir: ESE (123°)
  Rain: 0.0mm (0.0mm/hr)
  Solar: 88W/m2  Hum: 97%

Historic data

Bath Spa Weather Station Historical Data
Daily Summary for October 02, 2022 Units:  English    Metric   Both
Daily Weekly Monthly Yearly Custom
  High: Low: Average:
Temperature: 64.8 °F 47.3 °F 56.3 °F
Dew Point: 56.3 °F 44 °F 51.6 °F
Humidity: 95% 63.8% 85%
Wind Speed: 7.9mph 0mph 1.6mph
Wind Gust: 13mph - -
Wind- - WNW
Pressure: 30.34 in 29.98 in -
Precipitation: 0.28 in    
Historical Graphs
 
 
Tabular Data for October 02, 2022
Time Temperature Dew Point Pressure Wind Wind Speed Wind Gust Humidity Rainfall Rate (Hourly) solar
00:09 55.9 °F 53.4 °F 29.98 in West 2.8 mph 5 mph 91.2% 0.02 in 0 W/m2
00:14 55.8 °F 53.4 °F 29.98 in WSW 2.5 mph 6 mph 92% 0.02 in 0 W/m2
00:19 55.8 °F 53.4 °F 29.99 in West 2.9 mph 6 mph 92% 0.03 in 0 W/m2
00:24 55.8 °F 53.4 °F 29.99 in WNW 2.8 mph 6 mph 92% 0.03 in 0 W/m2
00:29 55.8 °F 53.4 °F 29.99 in West 2 mph 4 mph 92% 0.02 in 0 W/m2
00:34 55.8 °F 53.4 °F 29.99 in West 1.7 mph 4 mph 92% 0.02 in 0 W/m2
00:39 55.8 °F 53.4 °F 29.99 in West 1.2 mph 3 mph 92% 0.02 in 0 W/m2
00:44 55.8 °F 53.4 °F 29.99 in West 0.9 mph 3 mph 92% 0.02 in 0 W/m2
00:49 55.8 °F 53.4 °F 29.99 in West 2 mph 4 mph 92% 0.02 in 0 W/m2
00:54 55.7 °F 53.3 °F 29.99 in West 1.9 mph 5 mph 92% 0.02 in 0 W/m2
00:59 55.6 °F 53.2 °F 29.99 in West 1.2 mph 3 mph 92% 0.01 in 0 W/m2
01:04 55.6 °F 53.2 °F 29.99 in West 0.9 mph 4 mph 92% 0.01 in 0 W/m2
01:09 55.6 °F 53.2 °F 30.00 in West 1.1 mph 3 mph 92% 0.01 in 0 W/m2
01:14 55.5 °F 53.1 °F 30.00 in West 1.6 mph 3 mph 92% 0.01 in 0 W/m2
01:19 55.4 °F 53.1 °F 29.99 in WNW 1.7 mph 4 mph 92% 0.01 in 0 W/m2
01:24 55.3 °F 53 °F 29.99 in NW 0.4 mph 6 mph 92% 0.00 in 0 W/m2
01:29 55.2 °F 52.9 °F 29.99 in Calm   2 mph 92% 0.00 in 0 W/m2
01:34 55.2 °F 52.9 °F 30.00 in Calm     92% 0.00 in 0 W/m2
01:39 55.2 °F 52.9 °F 30.00 in NW 0.5 mph 2 mph 92% 0.00 in 0 W/m2
01:44 55.2 °F 52.9 °F 30.00 in NW 0.5 mph 2 mph 92% 0.00 in 0 W/m2
01:49 55.2 °F 52.9 °F 30.00 in NW 0.4 mph 2 mph 92% 0.00 in 0 W/m2
01:54 55.1 °F 52.8 °F 30.00 in NW 0.4 mph 2 mph 92% 0.00 in 0 W/m2
01:59 55.1 °F 52.8 °F 30.01 in Calm     92% 0.00 in 0 W/m2
02:04 55 °F 52.7 °F 30.01 in Calm     92% 0.00 in 0 W/m2
02:09 55 °F 52.7 °F 30.01 in Calm     92% 0.00 in 0 W/m2
02:14 55 °F 52.7 °F 30.01 in NW 1.4 mph 4 mph 92% 0.00 in 0 W/m2
02:19 55 °F 52.7 °F 30.01 in NW 0.6 mph 2 mph 92% 0.00 in 0 W/m2
02:24 55 °F 52.7 °F 30.01 in NW 0.2 mph 2 mph 92% 0.00 in 0 W/m2
02:29 55 °F 52.7 °F 30.01 in Calm     92% 0.00 in 0 W/m2
02:34 55 °F 52.9 °F 30.01 in Calm     92.6% 0.00 in 0 W/m2
02:39 54.9 °F 52.9 °F 30.01 in Calm     93% 0.00 in 0 W/m2
02:44 54.9 °F 52.9 °F 30.01 in Calm     93% 0.00 in 0 W/m2
02:49 54.9 °F 53 °F 30.01 in Calm     93% 0.00 in 0 W/m2
02:54 54.9 °F 52.9 °F 30.01 in Calm     93% 0.00 in 0 W/m2
02:59 54.9 °F 52.9 °F 30.01 in NW 0.7 mph 2 mph 93% 0.00 in 0 W/m2
03:04 54.9 °F 52.9 °F 30.01 in NW 0.5 mph 3 mph 93% 0.00 in 0 W/m2
03:09 54.9 °F 52.9 °F 30.01 in NW 1.6 mph 3 mph 93% 0.00 in 0 W/m2
03:14 54.8 °F 52.8 °F 30.01 in NW 2.1 mph 4 mph 93% 0.00 in 0 W/m2
03:19 54.7 °F 52.7 °F 30.01 in NW 1.6 mph 3 mph 93% 0.00 in 0 W/m2
03:24 54.8 °F 52.8 °F 30.01 in NW 1.2 mph 3 mph 93% 0.00 in 0 W/m2
03:29 54.7 °F 52.7 °F 30.02 in NW 1.2 mph 3 mph 93% 0.00 in 0 W/m2
03:34 54.9 °F 52.9 °F 30.02 in NW 1.6 mph 3 mph 93% 0.00 in 0 W/m2
03:39 54.9 °F 52.9 °F 30.02 in NW 1.5 mph 3 mph 93% 0.01 in 0 W/m2
03:44 54.9 °F 52.9 °F 30.02 in NW 1.2 mph 4 mph 93% 0.01 in 0 W/m2
03:49 54.9 °F 52.9 °F 30.01 in NW 0.8 mph 2 mph 93% 0.01 in 0 W/m2
03:54 54.9 °F 52.9 °F 30.01 in NW 1.2 mph 3 mph 93% 0.01 in 0 W/m2
03:59 54.9 °F 52.9 °F 30.02 in NW 1.3 mph 3 mph 93% 0.01 in 0 W/m2
04:04 54.9 °F 52.9 °F 30.02 in Calm   2 mph 93% 0.01 in 0 W/m2
04:09 54.9 °F 52.9 °F 30.02 in NW 0.2 mph 1 mph 93% 0.01 in 0 W/m2
04:14 54.9 °F 52.9 °F 30.02 in NW 0.4 mph 2 mph 93% 0.01 in 0 W/m2
04:19 54.9 °F 52.9 °F 30.02 in NW 1.2 mph 3 mph 93% 0.01 in 0 W/m2
04:24 54.9 °F 52.9 °F 30.02 in NW 0.6 mph 2 mph 93% 0.01 in 0 W/m2
04:29 54.9 °F 52.9 °F 30.02 in Calm     93% 0.02 in 0 W/m2
04:34 54.9 °F 52.9 °F 30.02 in NW 1.4 mph 3 mph 93% 0.02 in 0 W/m2
04:39 54.7 °F 52.8 °F 30.03 in NW 2 mph 3 mph 93.2% 0.01 in 0 W/m2
04:44 54.7 °F 53.1 °F 30.03 in NW 1.2 mph 3 mph 94% 0.01 in 0 W/m2
04:49 54.7 °F 53.1 °F 30.03 in NW 0.4 mph 2 mph 94% 0.02 in 0 W/m2
04:54 54.7 °F 53.1 °F 30.04 in NW 0.8 mph 2 mph 94% 0.02 in 0 W/m2
04:59 54.7 °F 53.1 °F 30.04 in NW 0.8 mph 2 mph 94% 0.02 in 0 W/m2
05:04 54.7 °F 53 °F 30.03 in NW 0.2 mph 1 mph 93.8% 0.02 in 0 W/m2
05:09 54.7 °F 52.7 °F 30.03 in Calm     93% 0.03 in 0 W/m2
05:14 54.6 °F 53 °F 30.03 in Calm     94% 0.04 in 0 W/m2
05:19 54.5 °F 52.9 °F 30.03 in Calm     94% 0.05 in 0 W/m2
05:24 54.3 °F 52.7 °F 30.03 in Calm     94% 0.06 in 0 W/m2
05:29 54.5 °F 52.9 °F 30.03 in NW 0.2 mph 2 mph 94% 0.05 in 0 W/m2
05:34 54.5 °F 52.9 °F 30.03 in NW 0.7 mph 2 mph 94% 0.06 in 0 W/m2
05:39 54.5 °F 52.9 °F 30.03 in NW 0.5 mph 2 mph 94% 0.06 in 0 W/m2
05:44 54.4 °F 52.8 °F 30.04 in NW 0.6 mph 2 mph 94% 0.06 in 0 W/m2
05:49 54.5 °F 52.9 °F 30.04 in NW 0.2 mph 2 mph 94% 0.06 in 0 W/m2
05:54 54.4 °F 52.8 °F 30.04 in Calm     94% 0.06 in 0 W/m2
05:59 54.3 °F 52.7 °F 30.04 in Calm     94% 0.06 in 0 W/m2
06:04 54.3 °F 52.7 °F 30.03 in Calm     94% 0.06 in 0 W/m2
06:09 54.3 °F 52.7 °F 30.04 in Calm     94% 0.06 in 0 W/m2
06:14 54.3 °F 52.7 °F 30.04 in Calm     94% 0.06 in 0 W/m2
06:19 54.3 °F 52.7 °F 30.05 in NW 0.2 mph 2 mph 94% 0.06 in 0 W/m2
06:24 54.3 °F 52.7 °F 30.05 in NW 2.1 mph 4 mph 94% 0.05 in 0 W/m2
06:29 54.3 °F 52.7 °F 30.05 in NW 2.3 mph 4 mph 94% 0.05 in 0 W/m2
06:34 54.3 °F 52.7 °F 30.05 in NW 2.1 mph 4 mph 94% 0.05 in 0 W/m2
06:39 54.3 °F 52.7 °F 30.06 in WNW 1.5 mph 4 mph 94% 0.05 in 0 W/m2
06:44 54.3 °F 52.7 °F 30.06 in WNW 2.1 mph 4 mph 94% 0.05 in 0 W/m2
06:49 54.2 °F 52.6 °F 30.06 in WNW 1.7 mph 4 mph 94% 0.05 in 0 W/m2
06:54 54.1 °F 52.5 °F 30.06 in WNW 2.3 mph 5 mph 94% 0.05 in 0 W/m2
06:59 54.1 °F 52.5 °F 30.07 in West 1 mph 3 mph 94% 0.06 in 0 W/m2
07:04 54 °F 52.3 °F 30.06 in West 1 mph 3 mph 94% 0.06 in 0 W/m2
07:09 53.9 °F 52.2 °F 30.07 in West 1.6 mph 4 mph 94% 0.06 in 0 W/m2
07:14 53.7 °F 52.1 °F 30.07 in Calm   2 mph 94% 0.06 in 0 W/m2
07:19 53.4 °F 51.8 °F 30.08 in West 0.4 mph 1 mph 94% 0.06 in 0 W/m2
07:24 53.2 °F 51.6 °F 30.08 in Calm     94% 0.06 in 0 W/m2
07:29 53.2 °F 51.6 °F 30.08 in Calm     94% 0.06 in 0 W/m2
07:34 53.2 °F 51.6 °F 30.08 in Calm     94% 0.06 in 0 W/m2
07:39 53.2 °F 51.6 °F 30.08 in Calm     94% 0.06 in 0 W/m2
07:44 53.2 °F 51.6 °F 30.09 in West 0.8 mph 2 mph 94% 0.06 in 0 W/m2
07:49 53.1 °F 51.4 °F 30.09 in West 1.4 mph 3 mph 94% 0.06 in 0 W/m2
07:54 53.1 °F 51.5 °F 30.09 in West 1.5 mph 4 mph 94.6% 0.06 in 0 W/m2
07:59 52.9 °F 51.5 °F 30.09 in West 1.7 mph 3 mph 95% 0.06 in 5 W/m2
08:04 52.5 °F 50.9 °F 30.10 in West 0.9 mph 3 mph 94% 0.06 in 7 W/m2
08:09 52.4 °F 50.9 °F 30.10 in West 1.3 mph 2 mph 94.4% 0.06 in 9 W/m2
08:14 52.3 °F 50.9 °F 30.10 in West 1.2 mph 3 mph 95% 0.06 in 12 W/m2
08:19 52.2 °F 50.7 °F 30.11 in West 1.5 mph 3 mph 95% 0.06 in 14 W/m2
08:24 52.2 °F 50.7 °F 30.11 in West 1.3 mph 3 mph 95% 0.06 in 12 W/m2
08:29 52 °F 50.5 °F 30.11 in West 1.7 mph 3 mph 94.2% 0.06 in 14 W/m2
08:34 52 °F 50.4 °F 30.11 in West 0.5 mph 3 mph 94% 0.07 in 14 W/m2
08:39 52 °F 50.5 °F 30.11 in West 0.2 mph 2 mph 94.4% 0.07 in 21 W/m2
08:44 52 °F 50.5 °F 30.11 in Calm   1 mph 94.6% 0.07 in 26 W/m2
08:49 52.2 °F 50.7 °F 30.11 in West 0.5 mph 2 mph 95% 0.07 in 26 W/m2
08:54 52.1 °F 50.6 °F 30.11 in Calm   2 mph 95% 0.08 in 25 W/m2
08:59 52.1 °F 50.6 °F 30.11 in Calm     94.8% 0.07 in 26 W/m2
09:04 52.1 °F 50.5 °F 30.11 in West 0.9 mph 2 mph 94.6% 0.07 in 30 W/m2
09:09 52 °F 50.4 °F 30.12 in West 0.4 mph 3 mph 94% 0.06 in 39 W/m2
09:14 52 °F 50.5 °F 30.12 in West 1.6 mph 3 mph 94.4% 0.06 in 51 W/m2
09:19 52 °F 50.5 °F 30.12 in West 1.6 mph 3 mph 94.2% 0.06 in 65 W/m2
09:24 52 °F 50.4 °F 30.12 in West 0.4 mph 3 mph 94% 0.06 in 81 W/m2
09:29 52.1 °F 50.6 °F 30.13 in Calm   2 mph 94.8% 0.05 in 90 W/m2
09:34 52.2 °F 50.7 °F 30.13 in West 0.9 mph 2 mph 95% 0.04 in 90 W/m2
09:39 52.3 °F 50.9 °F 30.13 in West 1.2 mph 2 mph 95% 0.03 in 86 W/m2
09:44 52.3 °F 50.9 °F 30.13 in West 1 mph 2 mph 95% 0.02 in 91 W/m2
09:49 52.3 °F 50.9 °F 30.12 in West 1.6 mph 3 mph 95% 0.02 in 90 W/m2
09:54 52.3 °F 50.9 °F 30.12 in West 0.8 mph 3 mph 95% 0.02 in 91 W/m2
09:59 52.4 °F 50.9 °F 30.13 in Calm   1 mph 94.6% 0.01 in 114 W/m2
10:04 52.6 °F 51 °F 30.13 in West 0.2 mph 1 mph 94% 0.01 in 123 W/m2
10:09 52.7 °F 51.2 °F 30.13 in Calm   1 mph 94.2% 0.01 in 128 W/m2
10:14 52.9 °F 51.4 °F 30.13 in West 0.4 mph 2 mph 95% 0.01 in 181 W/m2
10:19 53.1 °F 51.6 °F 30.14 in West 1.2 mph 3 mph 94.4% 0.00 in 278 W/m2
10:24 53.3 °F 51.7 °F 30.14 in West 1.7 mph 4 mph 94% 0.00 in 318 W/m2
10:29 53.4 °F 51.8 °F 30.14 in West 2.1 mph 4 mph 94% 0.00 in 355 W/m2
10:34 54 °F 52.4 °F 30.14 in WNW 2 mph 5 mph 94.6% 0.00 in 471 W/m2
10:39 54.6 °F 53.1 °F 30.14 in West 2.7 mph 6 mph 94.4% 0.00 in 482 W/m2
10:44 54.8 °F 53.1 °F 30.14 in West 3.5 mph 6 mph 94% 0.00 in 482 W/m2
10:49 55.2 °F 53.6 °F 30.14 in West 2.3 mph 5 mph 94% 0.00 in 443 W/m2
10:54 55 °F 53.4 °F 30.14 in WNW 3 mph 5 mph 94% 0.00 in 308 W/m2
10:59 55 °F 53.4 °F 30.15 in WNW 2.3 mph 4 mph 94% 0.00 in 197 W/m2
11:04 55.5 °F 53.9 °F 30.15 in WNW 3.2 mph 5 mph 94% 0.00 in 432 W/m2
11:09 55.8 °F 54.1 °F 30.15 in WNW 2.9 mph 5 mph 93.8% 0.00 in 438 W/m2
11:14 56.1 °F 54.4 °F 30.15 in West 1.9 mph 5 mph 93.6% 0.00 in 445 W/m2
11:19 56.5 °F 54.5 °F 30.15 in WNW 3.4 mph 7 mph 93% 0.00 in 454 W/m2
11:24 56.9 °F 54.9 °F 30.15 in West 4.1 mph 6 mph 93% 0.00 in 462 W/m2
11:29 57.1 °F 54.8 °F 30.15 in West 2.5 mph 6 mph 92% 0.00 in 478 W/m2
11:34 57.6 °F 55.2 °F 30.16 in West 3.8 mph 6 mph 92% 0.00 in 483 W/m2
11:39 57.7 °F 55.2 °F 30.16 in West 4 mph 6 mph 91.2% 0.00 in 485 W/m2
11:44 57.9 °F 55.1 °F 30.16 in WNW 3.5 mph 6 mph 90.8% 0.00 in 492 W/m2
11:49 58.1 °F 55.2 °F 30.16 in West 2.2 mph 5 mph 90% 0.00 in 497 W/m2
11:54 58.6 °F 55.7 °F 30.17 in WSW 2.2 mph 5 mph 90% 0.00 in 503 W/m2
11:59 59.5 °F 56.2 °F 30.17 in WSW 2.8 mph 6 mph 88.8% 0.00 in 508 W/m2
12:04 60 °F 56.3 °F 30.17 in West 2.1 mph 5 mph 87.8% 0.00 in 527 W/m2
12:09 60.1 °F 56 °F 30.17 in NW 4.5 mph 7 mph 86.4% 0.00 in 520 W/m2
12:14 60.2 °F 55.6 °F 30.17 in North 3.3 mph 9 mph 84.8% 0.00 in 545 W/m2
12:19 60.3 °F 54.9 °F 30.17 in NNW 3.7 mph 8 mph 82.6% 0.00 in 559 W/m2
12:24 60.7 °F 55 °F 30.17 in NW 3.3 mph 6 mph 81.6% 0.00 in 617 W/m2
12:29 60.9 °F 54.7 °F 30.17 in WNW 5.6 mph 8 mph 80% 0.00 in 605 W/m2
12:34 61.2 °F 54.5 °F 30.17 in WNW 3.7 mph 7 mph 78.6% 0.00 in 580 W/m2
12:39 61.7 °F 54.8 °F 30.18 in NNE 1.3 mph 5 mph 78% 0.00 in 631 W/m2
12:44 62.7 °F 55.4 °F 30.18 in NW 1.6 mph 5 mph 77.2% 0.00 in 132 W/m2
12:49 62.1 °F 54.1 °F 30.19 in WNW 3.1 mph 7 mph 75.2% 0.00 in 499 W/m2
12:54 61.3 °F 53.6 °F 30.19 in WNW 1.8 mph 5 mph 75.4% 0.00 in 656 W/m2
12:59 61.9 °F 54.1 °F 30.19 in WNW 4.1 mph 9 mph 75.6% 0.00 in 657 W/m2
13:04 62.2 °F 53.8 °F 30.19 in WNW 3.5 mph 8 mph 74.2% 0.00 in 612 W/m2
13:09 62.2 °F 53.4 °F 30.19 in NW 4.8 mph 8 mph 73% 0.00 in 610 W/m2
13:14 62.1 °F 53.2 °F 30.19 in WNW 4.4 mph 8 mph 72.8% 0.00 in 622 W/m2
13:19 62.7 °F 53.9 °F 30.19 in WNW 5 mph 8 mph 73% 0.00 in 636 W/m2
13:24 63 °F 53.9 °F 30.19 in West 4.3 mph 8 mph 72.2% 0.00 in 645 W/m2
13:29 63 °F 53.8 °F 30.19 in NW 3.3 mph 8 mph 72.2% 0.00 in 691 W/m2
13:34 63.3 °F 54.2 °F 30.19 in WNW 5.1 mph 9 mph 72.2% 0.00 in 715 W/m2
13:39 63.1 °F 53.6 °F 30.20 in NW 4.1 mph 7 mph 71% 0.00 in 705 W/m2
13:44 63 °F 53.7 °F 30.20 in NNW 3.5 mph 6 mph 71.8% 0.00 in 322 W/m2
13:49 62.8 °F 53.6 °F 30.20 in NW 3.7 mph 8 mph 72% 0.00 in 621 W/m2
13:54 63.1 °F 53.8 °F 30.20 in WNW 4.7 mph 10 mph 71.8% 0.00 in 594 W/m2
13:59 63.5 °F 53.8 °F 30.20 in West 4.1 mph 8 mph 70.4% 0.00 in 619 W/m2
14:04 63.8 °F 53.9 °F 30.20 in WNW 5 mph 9 mph 70% 0.00 in 689 W/m2
14:09 64 °F 53.5 °F 30.20 in West 3.1 mph 9 mph 68.8% 0.00 in 701 W/m2
14:14 64.7 °F 53.9 °F 30.20 in West 5.1 mph 10 mph 68% 0.00 in 687 W/m2
14:19 64.8 °F 54 °F 30.20 in WNW 6.2 mph 11 mph 68% 0.00 in 682 W/m2
14:24 64.6 °F 54.5 °F 30.20 in WNW 5.2 mph 9 mph 70% 0.00 in 461 W/m2
14:29 63.6 °F 54.1 °F 30.21 in WNW 7.9 mph 13 mph 71.2% 0.00 in 121 W/m2
14:34 62.3 °F 53.3 °F 30.21 in NNW 5.3 mph 12 mph 72.4% 0.00 in 144 W/m2
14:39 62 °F 53.2 °F 30.21 in NNW 3.9 mph 10 mph 73.2% 0.00 in 144 W/m2
14:44 61.9 °F 53.4 °F 30.21 in North 4.4 mph 8 mph 74% 0.00 in 287 W/m2
14:49 62.1 °F 53.6 °F 30.22 in North 5.2 mph 8 mph 74% 0.00 in 225 W/m2
14:54 62.2 °F 53.7 °F 30.22 in North 6.2 mph 9 mph 73.8% 0.00 in 216 W/m2
14:59 62.2 °F 53.4 °F 30.22 in NW 2.3 mph 9 mph 73% 0.00 in 418 W/m2
15:04 62.3 °F 53.5 °F 30.22 in NW 2.5 mph 6 mph 73% 0.00 in 225 W/m2
15:09 62.5 °F 53.6 °F 30.22 in NNW 3.5 mph 8 mph 72.8% 0.00 in 294 W/m2
15:14 62.5 °F 53.3 °F 30.22 in NNW 3.5 mph 8 mph 72% 0.00 in 251 W/m2
15:19 62.5 °F 53.4 °F 30.21 in North 2.5 mph 5 mph 72.4% 0.00 in 267 W/m2
15:24 63.2 °F 54.3 °F 30.22 in NNW 3 mph 8 mph 72.6% 0.00 in 410 W/m2
15:29 63.5 °F 54.1 °F 30.22 in NNW 2.4 mph 5 mph 71.4% 0.00 in 424 W/m2
15:34 63.8 °F 53.9 °F 30.21 in NNW 2.4 mph 5 mph 70% 0.00 in 424 W/m2
15:39 64.1 °F 54.4 °F 30.21 in NNW 2.1 mph 4 mph 70.6% 0.00 in 461 W/m2
15:44 64.4 °F 53.9 °F 30.21 in North 3.4 mph 6 mph 68.8% 0.00 in 448 W/m2
15:49 64.5 °F 53.3 °F 30.22 in WNW 2.9 mph 8 mph 67% 0.00 in 408 W/m2
15:54 64 °F 52.7 °F 30.22 in NW 2 mph 6 mph 66.8% 0.00 in 134 W/m2
15:59 63.2 °F 52.3 °F 30.22 in WNW 4.4 mph 7 mph 67.6% 0.00 in 139 W/m2
16:04 63 °F 52.1 °F 30.22 in NW 2.8 mph 5 mph 67.6% 0.00 in 148 W/m2
16:09 62.8 °F 51.8 °F 30.22 in WNW 3.5 mph 6 mph 67.4% 0.00 in 141 W/m2
16:14 62.8 °F 51.8 °F 30.22 in WNW 2.8 mph 5 mph 67.4% 0.00 in 127 W/m2
16:19 62.8 °F 52 °F 30.22 in West 1.4 mph 4 mph 68% 0.00 in 123 W/m2
16:24 62.9 °F 51.9 °F 30.22 in WNW 2 mph 6 mph 67.5% 0.00 in 378 W/m2
16:29 63.5 °F 52.2 °F 30.22 in WNW 2.9 mph 6 mph 66.8% 0.00 in 373 W/m2
16:34 63.4 °F 52 °F 30.23 in NW 6 mph 10 mph 66.4% 0.00 in 186 W/m2
16:39 62.9 °F 51.8 °F 30.23 in WNW 4.5 mph 7 mph 67.4% 0.00 in 151 W/m2
16:44 63 °F 52.5 °F 30.23 in NW 4.2 mph 9 mph 68.4% 0.00 in 352 W/m2
16:49 63.3 °F 52.6 °F 30.23 in WNW 2.8 mph 7 mph 68.2% 0.00 in 142 W/m2
16:54 63.5 °F 53.1 °F 30.23 in NW 4.4 mph 9 mph 69% 0.00 in 304 W/m2
16:59 63.6 °F 52.5 °F 30.23 in NNW 4.5 mph 9 mph 67.2% 0.00 in 294 W/m2
17:04 63.1 °F 52 °F 30.23 in NNW 4.4 mph 7 mph 66.8% 0.00 in 104 W/m2
17:09 63.1 °F 52.1 °F 30.24 in NNW 3.2 mph 6 mph 67.2% 0.00 in 246 W/m2
17:14 63.5 °F 52.5 °F 30.23 in North 3.7 mph 7 mph 67.2% 0.00 in 216 W/m2
17:19 63.9 °F 52.8 °F 30.23 in NNW 2.2 mph 6 mph 67% 0.00 in 183 W/m2
17:24 64.4 °F 52.8 °F 30.24 in North 2.7 mph 7 mph 66.2% 0.00 in 169 W/m2
17:29 64.6 °F 52.3 °F 30.24 in NW 3 mph 6 mph 64.2% 0.00 in 156 W/m2
17:34 63.9 °F 51.4 °F 30.24 in North 4.8 mph 7 mph 63.8% 0.00 in 128 W/m2
17:39 63.3 °F 51 °F 30.24 in NNW 2.4 mph 6 mph 64.2% 0.00 in 104 W/m2
17:44 63.3 °F 51.2 °F 30.24 in North 2 mph 5 mph 64.6% 0.00 in 95 W/m2
17:49 63.5 °F 51.2 °F 30.24 in North 3.1 mph 5 mph 64.6% 0.00 in 84 W/m2
17:54 63.3 °F 51.3 °F 30.24 in NNE 2.1 mph 5 mph 64.8% 0.00 in 70 W/m2
17:59 63.3 °F 51.3 °F 30.25 in North 3.2 mph 4 mph 64.8% 0.00 in 62 W/m2
18:04 63.1 °F 51.1 °F 30.25 in North 2 mph 4 mph 64.6% 0.00 in 49 W/m2
18:09 63 °F 51.3 °F 30.25 in North 2.5 mph 5 mph 65.8% 0.00 in 39 W/m2
18:14 62.6 °F 51.2 °F 30.26 in North 2 mph 3 mph 66.2% 0.00 in 32 W/m2
18:19 62.2 °F 51.1 °F 30.26 in North 2.4 mph 4 mph 67% 0.00 in 26 W/m2
18:24 62.1 °F 51.9 °F 30.26 in North 0.4 mph 3 mph 69% 0.00 in 19 W/m2
18:29 61.8 °F 52.1 °F 30.26 in North 1.1 mph 3 mph 70.4% 0.00 in 12 W/m2
18:34 61.2 °F 52 °F 30.26 in North 0.6 mph 2 mph 71.8% 0.00 in 11 W/m2
18:39 60.8 °F 52.2 °F 30.27 in North 0.5 mph 2 mph 73% 0.00 in 7 W/m2
18:44 59.6 °F 51.1 °F 30.26 in NNW 1.2 mph 3 mph 73.4% 0.00 in 5 W/m2
18:49 58.8 °F 50.7 °F 30.27 in NNW 0.2 mph 2 mph 74.6% 0.00 in 0 W/m2
18:54 57.9 °F 50.3 °F 30.27 in NNW 1.8 mph 3 mph 75.8% 0.00 in 0 W/m2
18:59 57.4 °F 50.2 °F 30.27 in NNW 2.2 mph 4 mph 76.8% 0.00 in 0 W/m2
19:04 57.1 °F 49.9 °F 30.27 in NNW 0.5 mph 2 mph 77% 0.00 in 0 W/m2
19:09 57.5 °F 50.6 °F 30.27 in NNW 0.2 mph 1 mph 78% 0.00 in 0 W/m2
19:14 57.7 °F 50.9 °F 30.27 in Calm   1 mph 78% 0.00 in 0 W/m2
19:19 57.4 °F 50.5 °F 30.28 in NNW 0.5 mph 1 mph 78% 0.00 in 0 W/m2
19:24 57.2 °F 50.4 °F 30.28 in NNW 0.4 mph 2 mph 78% 0.00 in 0 W/m2
19:29 56.3 °F 49.4 °F 30.28 in NNW 0.5 mph 1 mph 78% 0.00 in 0 W/m2
19:34 55.3 °F 48.7 °F 30.29 in NNW 1.1 mph 3 mph 78% 0.00 in 0 W/m2
19:39 54.9 °F 48.2 °F 30.29 in NNW 1 mph 2 mph 78% 0.00 in 0 W/m2
19:44 54.9 °F 48.2 °F 30.29 in NNW 1.1 mph 2 mph 78% 0.00 in 0 W/m2
19:49 54.7 °F 48 °F 30.30 in NNW 1.3 mph 2 mph 78% 0.00 in 0 W/m2
19:54 54.6 °F 48.1 °F 30.30 in NNW 0.9 mph 2 mph 78.4% 0.00 in 0 W/m2
19:59 54.3 °F 48 °F 30.30 in Calm   1 mph 79% 0.00 in 0 W/m2
20:04 54 °F 47.8 °F 30.30 in NNW 0.5 mph 2 mph 79.4% 0.00 in 0 W/m2
20:09 53.8 °F 47.8 °F 30.31 in Calm   1 mph 80% 0.00 in 0 W/m2
20:14 53.4 °F 47.6 °F 30.31 in NNW 0.2 mph 1 mph 80.8% 0.00 in 0 W/m2
20:19 53.1 °F 47.5 °F 30.31 in Calm     81.2% 0.00 in 0 W/m2
20:24 53.2 °F 47.8 °F 30.31 in Calm     82% 0.00 in 0 W/m2
20:29 53.2 °F 47.9 °F 30.31 in Calm     82.2% 0.00 in 0 W/m2
20:34 53.2 °F 48.2 °F 30.31 in Calm     83% 0.00 in 0 W/m2
20:39 53.2 °F 48.2 °F 30.32 in North 0.8 mph 3 mph 83% 0.00 in 0 W/m2
20:44 53.2 °F 48.2 °F 30.31 in North 1.8 mph 3 mph 83% 0.00 in 0 W/m2
20:49 53.1 °F 48 °F 30.31 in North 0.2 mph 2 mph 83% 0.00 in 0 W/m2
20:54 52.9 °F 47.8 °F 30.32 in Calm     83% 0.00 in 0 W/m2
20:58 52.8 °F 47.8 °F 30.32 in Calm     83.3% 0.00 in 0 W/m2
21:04 52.5 °F 47.8 °F 30.32 in Calm     84% 0.00 in 0 W/m2
21:09 52.4 °F 47.8 °F 30.32 in North 0.6 mph 2 mph 84% 0.00 in 0 W/m2
21:14 52.1 °F 47.5 °F 30.32 in North 0.7 mph 2 mph 84% 0.00 in 0 W/m2
21:19 51.8 °F 47.1 °F 30.32 in Calm   2 mph 84.2% 0.00 in 0 W/m2
21:24 51.6 °F 47.3 °F 30.32 in North 0.4 mph 1 mph 85% 0.00 in 0 W/m2
21:29 52 °F 47.7 °F 30.32 in North 0.4 mph 1 mph 85.2% 0.00 in 0 W/m2
21:34 52.8 °F 48.6 °F 30.32 in Calm     86% 0.00 in 0 W/m2
21:39 52.9 °F 48.8 °F 30.32 in Calm     86% 0.00 in 0 W/m2
21:44 53.7 °F 49.6 °F 30.32 in Calm     86.2% 0.00 in 0 W/m2
21:49 53.9 °F 49.7 °F 30.32 in Calm     86% 0.00 in 0 W/m2
21:54 54 °F 49.8 °F 30.32 in Calm     86% 0.00 in 0 W/m2
21:59 53.9 °F 49.7 °F 30.32 in Calm     85.8% 0.00 in 0 W/m2
22:04 53.3 °F 49 °F 30.32 in Calm   1 mph 85% 0.00 in 0 W/m2
22:09 52.7 °F 48.4 °F 30.33 in Calm     85% 0.00 in 0 W/m2
22:14 51.7 °F 47.4 °F 30.33 in Calm     85% 0.00 in 0 W/m2
22:19 51.2 °F 46.8 °F 30.33 in Calm     85% 0.00 in 0 W/m2
22:24 50.8 °F 46.5 °F 30.33 in Calm     85% 0.00 in 0 W/m2
22:29 50.5 °F 46.2 °F 30.33 in Calm     85% 0.00 in 0 W/m2
22:34 50.3 °F 46.1 °F 30.33 in Calm   1 mph 85.4% 0.00 in 0 W/m2
22:39 50 °F 46 °F 30.33 in Calm   1 mph 86% 0.00 in 0 W/m2
22:44 49.8 °F 45.9 °F 30.33 in Calm     86% 0.00 in 0 W/m2
22:49 49.6 °F 45.7 °F 30.33 in Calm     86% 0.00 in 0 W/m2
22:54 49.4 °F 45.4 °F 30.34 in Calm     86% 0.00 in 0 W/m2
22:59 49.2 °F 45.2 °F 30.34 in Calm     86% 0.00 in 0 W/m2
23:04 48.9 °F 45.1 °F 30.34 in Calm   1 mph 86.8% 0.00 in 0 W/m2
23:09 48.8 °F 45 °F 30.34 in Calm     87% 0.00 in 0 W/m2
23:14 48.7 °F 45 °F 30.34 in Calm   1 mph 87% 0.00 in 0 W/m2
23:19 48.6 °F 44.8 °F 30.34 in Calm   1 mph 87% 0.00 in 0 W/m2
23:24 48.4 °F 44.8 °F 30.34 in Calm     87% 0.00 in 0 W/m2
23:29 48 °F 44.4 °F 30.34 in Calm     87% 0.00 in 0 W/m2
23:34 47.7 °F 44.3 °F 30.34 in Calm     88% 0.00 in 0 W/m2
23:39 47.7 °F 44.2 °F 30.34 in Calm     88% 0.00 in 0 W/m2
23:44 47.7 °F 44.2 °F 30.34 in Calm     88% 0.00 in 0 W/m2
23:49 47.5 °F 44.1 °F 30.34 in Calm     88% 0.00 in 0 W/m2
23:54 47.4 °F 44 °F 30.34 in Calm     88% 0.00 in 0 W/m2
23:59 47.3 °F 44 °F 30.33 in Calm     88.4% 0.00 in 0 W/m2
Bath Spa Weather
Compliments of Weather Underground - 2 mb